Time;durP1;ratioP1;P1;durP2;ratioP2;P2;SDS_P1;SDS_P2;PMS_P1;PMS_P2;Temp;Humidity;BMP_temperature;BMP_pressure;BME280_temperature;BME280_humidity;BME280_pressure;Samples;Min_cycle;Max_cycle;Signal;HPM_P1;HPM_P2
2021/09/16 00:01:41;;;;;;;3.65;1.00;;;14.60;99.90;;;;;;5059705;28;20707;-51
2021/09/16 00:04:07;;;;;;;6.35;1.30;;;14.50;99.90;;;;;;5037539;28;20438;-49
2021/09/16 00:06:33;;;;;;;5.55;1.05;;;14.50;99.90;;;;;;5056690;28;20055;-47
2021/09/16 00:09:02;;;;;;;4.07;1.25;;;14.40;99.90;;;;;;5059979;28;20412;-51
2021/09/16 00:11:28;;;;;;;4.80;0.93;;;14.40;99.90;;;;;;5070133;28;20044;-50
2021/09/16 00:13:54;;;;;;;7.30;1.08;;;14.40;99.90;;;;;;5069530;28;20056;-49
2021/09/16 00:16:20;;;;;;;10.00;1.50;;;14.40;99.90;;;;;;5063698;28;20053;-49
2021/09/16 00:18:46;;;;;;;7.10;1.05;;;14.40;99.90;;;;;;5063480;28;20045;-47
2021/09/16 00:21:13;;;;;;;6.68;1.02;;;14.40;99.90;;;;;;5061773;28;20048;-46
2021/09/16 00:23:44;;;;;;;6.85;1.40;;;14.40;99.90;;;;;;5058442;28;20053;-47
2021/09/16 00:26:10;;;;;;;5.85;1.15;;;14.40;99.90;;;;;;5055176;28;20083;-47
2021/09/16 00:28:36;;;;;;;8.88;1.33;;;14.50;99.90;;;;;;5062176;28;20401;-46
2021/09/16 00:31:02;;;;;;;8.48;1.63;;;14.50;99.90;;;;;;5061157;28;20073;-47
2021/09/16 00:33:29;;;;;;;7.50;1.10;;;14.60;99.90;;;;;;5064092;28;20126;-46
2021/09/16 00:35:55;;;;;;;6.57;1.38;;;14.60;99.90;;;;;;5061621;28;20158;-46
2021/09/16 00:38:21;;;;;;;5.85;1.00;;;14.70;99.90;;;;;;5056238;28;20053;-46
2021/09/16 00:40:47;;;;;;;5.78;0.88;;;14.70;99.90;;;;;;5068330;28;20060;-49
2021/09/16 00:43:14;;;;;;;4.57;1.00;;;14.70;99.90;;;;;;5061894;28;20064;-47
2021/09/16 00:45:40;;;;;;;5.30;0.88;;;14.70;99.90;;;;;;5062709;28;20059;-48
2021/09/16 00:48:06;;;;;;;2.90;0.73;;;14.70;99.90;;;;;;5057362;28;20049;-47
2021/09/16 00:50:32;;;;;;;5.35;0.95;;;14.60;99.90;;;;;;5068097;28;20345;-48
2021/09/16 00:53:01;;;;;;;6.45;0.93;;;14.50;99.90;;;;;;5073589;28;20093;-47
2021/09/16 00:55:30;;;;;;;5.25;1.05;;;14.50;99.90;;;;;;5059232;28;20051;-47
2021/09/16 00:58:01;;;;;;;4.72;1.05;;;14.40;99.90;;;;;;5053942;28;20052;-47
2021/09/16 01:00:27;;;;;;;6.93;1.33;;;14.40;99.90;;;;;;5062168;28;20059;-47
2021/09/16 01:02:53;;;;;;;6.15;0.95;;;14.30;99.90;;;;;;5063934;28;20084;-48
2021/09/16 01:05:20;;;;;;;5.07;1.00;;;14.20;99.90;;;;;;5062752;28;20063;-48
2021/09/16 01:07:46;;;;;;;6.82;1.00;;;14.20;99.90;;;;;;5057861;28;20069;-48
2021/09/16 01:10:13;;;;;;;4.18;1.05;;;14.10;99.90;;;;;;5056278;28;20067;-48
2021/09/16 01:12:40;;;;;;;7.78;1.23;;;14.10;99.90;;;;;;5057603;28;20083;-50
2021/09/16 01:15:08;;;;;;;5.00;1.10;;;14.00;99.90;;;;;;5058194;28;20048;-47
2021/09/16 01:17:34;;;;;;;5.15;1.10;;;14.00;99.90;;;;;;5059613;28;20057;-47
2021/09/16 01:20:00;;;;;;;7.35;1.40;;;14.00;99.90;;;;;;5060485;28;20527;-48
2021/09/16 01:22:32;;;;;;;6.00;1.48;;;14.00;99.90;;;;;;5051429;28;20409;-48
2021/09/16 01:24:58;;;;;;;4.68;1.52;;;13.90;99.90;;;;;;5063611;28;20363;-49
2021/09/16 01:27:24;;;;;;;7.30;1.27;;;13.90;99.90;;;;;;5060246;28;20530;-47
2021/09/16 01:29:53;;;;;;;7.63;1.40;;;13.90;99.90;;;;;;5063756;28;20045;-48
2021/09/16 01:32:19;;;;;;;6.80;1.95;;;13.90;99.90;;;;;;5060274;28;20056;-49
2021/09/16 01:34:45;;;;;;;6.45;1.60;;;13.90;99.90;;;;;;5061428;28;20048;-48
2021/09/16 01:37:13;;;;;;;4.93;1.30;;;13.80;99.90;;;;;;5066620;28;20048;-47
2021/09/16 01:39:39;;;;;;;6.10;1.30;;;13.90;99.90;;;;;;5055354;28;20056;-46
2021/09/16 01:42:06;;;;;;;8.38;1.40;;;13.90;99.90;;;;;;5063494;28;20452;-48
2021/09/16 01:44:38;;;;;;;;;;;14.00;99.90;;;;;;5056269;28;20045;-48
2021/09/16 01:47:04;;;;;;;4.55;1.48;;;14.00;99.90;;;;;;5057667;28;19932;-48
2021/09/16 01:49:33;;;;;;;8.07;1.40;;;14.00;99.90;;;;;;5059293;28;20847;-47
2021/09/16 01:51:59;;;;;;;7.35;1.48;;;14.10;99.90;;;;;;5066517;28;20101;-48
2021/09/16 01:54:25;;;;;;;6.53;1.00;;;14.10;99.90;;;;;;5067049;28;20143;-47
2021/09/16 01:56:54;;;;;;;6.85;1.13;;;14.20;99.90;;;;;;5060392;28;21734;-46
2021/09/16 01:59:22;;;;;;;8.48;1.35;;;14.20;99.90;;;;;;5058644;28;20621;-45
2021/09/16 02:01:48;;;;;;;4.70;1.27;;;14.20;99.90;;;;;;5053757;28;20056;-46
2021/09/16 02:04:14;;;;;;;4.90;1.58;;;14.30;99.90;;;;;;5060318;28;20056;-47
2021/09/16 02:06:40;;;;;;;6.70;1.55;;;14.30;99.90;;;;;;5059758;28;20048;-47
2021/09/16 02:09:07;;;;;;;5.55;1.40;;;14.40;99.90;;;;;;5058322;28;20060;-47
2021/09/16 02:11:33;;;;;;;8.50;1.48;;;14.30;99.90;;;;;;5056056;28;20063;-48
2021/09/16 02:13:59;;;;;;;9.52;1.45;;;14.30;99.90;;;;;;5059370;28;20102;-49
2021/09/16 02:16:25;;;;;;;6.32;2.15;;;14.30;99.90;;;;;;5066193;28;20075;-46
2021/09/16 02:18:51;;;;;;;7.28;1.67;;;14.30;99.90;;;;;;5058234;28;20044;-48
2021/09/16 02:21:20;;;;;;;8.48;2.05;;;14.30;99.90;;;;;;5062004;28;20061;-48
2021/09/16 02:23:46;;;;;;;9.77;2.17;;;14.30;99.90;;;;;;5067800;28;20048;-47
2021/09/16 02:26:12;;;;;;;9.13;1.60;;;14.30;99.90;;;;;;5059978;28;20048;-47
2021/09/16 02:28:38;;;;;;;11.77;1.85;;;14.30;99.90;;;;;;5059951;28;20044;-46
2021/09/16 02:31:06;;;;;;;7.63;1.60;;;14.40;99.90;;;;;;5058091;28;20065;-48
2021/09/16 02:33:33;;;;;;;7.38;1.73;;;14.40;99.90;;;;;;5061713;28;20067;-47
2021/09/16 02:36:00;;;;;;;9.82;2.20;;;14.40;99.90;;;;;;5057630;28;20673;-47
2021/09/16 02:38:27;;;;;;;6.60;1.60;;;14.40;99.90;;;;;;5061438;28;20044;-47
2021/09/16 02:40:54;;;;;;;5.95;1.55;;;14.50;99.90;;;;;;5049682;28;20060;-50
2021/09/16 02:43:20;;;;;;;5.65;1.75;;;14.50;99.90;;;;;;5056663;28;20069;-46
2021/09/16 02:45:46;;;;;;;5.80;1.55;;;14.50;99.90;;;;;;5055770;28;20135;-48
2021/09/16 02:48:13;;;;;;;8.55;2.10;;;14.60;99.90;;;;;;5058302;28;20080;-48
2021/09/16 02:50:39;;;;;;;7.35;2.22;;;14.60;99.90;;;;;;5057470;28;20049;-47
2021/09/16 02:53:09;;;;;;;8.13;1.88;;;14.60;99.90;;;;;;5058064;28;20154;-47
2021/09/16 02:55:35;;;;;;;5.63;1.90;;;14.70;99.90;;;;;;5058927;28;20051;-48
2021/09/16 02:58:01;;;;;;;7.85;1.70;;;14.70;99.90;;;;;;5060831;28;20395;-46
2021/09/16 03:00:27;;;;;;;8.50;2.05;;;14.70;99.90;;;;;;5066839;28;20044;-48
2021/09/16 03:02:53;;;;;;;9.23;2.25;;;14.70;99.90;;;;;;5066385;28;20052;-52
2021/09/16 03:05:19;;;;;;;8.85;1.83;;;14.70;99.90;;;;;;5057929;28;20051;-47
2021/09/16 03:07:45;;;;;;;7.95;2.35;;;14.70;99.90;;;;;;5062402;28;20694;-49
2021/09/16 03:10:13;;;;;;;9.75;2.17;;;14.70;99.90;;;;;;5053546;28;20513;-48
2021/09/16 03:12:42;;;;;;;8.80;2.35;;;14.80;99.90;;;;;;5061201;28;20532;-48
2021/09/16 03:15:09;;;;;;;12.35;2.90;;;14.80;99.90;;;;;;5062079;28;20048;-47
2021/09/16 03:17:38;;;;;;;7.55;2.10;;;14.70;99.90;;;;;;5058336;28;20048;-46
2021/09/16 03:20:04;;;;;;;9.13;2.95;;;14.80;99.90;;;;;;5058907;28;20143;-46
2021/09/16 03:22:31;;;;;;;9.98;2.42;;;14.80;99.90;;;;;;5060104;28;20049;-49
2021/09/16 03:24:59;;;;;;;11.57;3.03;;;14.80;99.90;;;;;;5063598;28;20052;-47
2021/09/16 03:27:25;;;;;;;8.20;3.28;;;14.80;99.90;;;;;;5058143;28;20122;-47
2021/09/16 03:29:51;;;;;;;9.77;2.95;;;14.70;99.90;;;;;;5058427;28;20135;-48
2021/09/16 03:32:17;;;;;;;10.52;3.13;;;14.80;99.90;;;;;;5060043;28;20226;-47
2021/09/16 03:34:43;;;;;;;8.57;2.83;;;14.80;99.90;;;;;;5061316;28;20135;-47
2021/09/16 03:37:09;;;;;;;8.40;2.72;;;14.80;99.90;;;;;;5065716;28;20512;-47
2021/09/16 03:39:35;;;;;;;9.10;3.67;;;14.80;99.90;;;;;;5054448;28;20127;-46
2021/09/16 03:42:01;;;;;;;8.32;3.47;;;14.80;99.90;;;;;;5054481;28;20234;-46
2021/09/16 03:44:27;;;;;;;15.35;3.53;;;14.80;99.90;;;;;;5061658;28;21454;-49
2021/09/16 03:46:53;;;;;;;8.93;3.28;;;14.80;99.90;;;;;;5057094;28;20195;-46
2021/09/16 03:49:20;;;;;;;9.82;3.28;;;14.80;99.90;;;;;;5055808;28;20048;-46
2021/09/16 03:51:46;;;;;;;9.00;3.42;;;14.80;99.90;;;;;;5052407;28;20194;-47
2021/09/16 03:54:12;;;;;;;11.93;3.15;;;14.80;99.90;;;;;;5060134;28;20135;-47
2021/09/16 03:56:38;;;;;;;13.02;3.58;;;14.80;99.90;;;;;;5060773;28;20076;-47
2021/09/16 03:59:06;;;;;;;9.48;3.40;;;14.80;99.90;;;;;;5060274;28;20053;-48
2021/09/16 04:01:32;;;;;;;10.23;3.35;;;14.70;99.90;;;;;;5059352;28;20772;-47
2021/09/16 04:03:58;;;;;;;9.30;3.63;;;14.70;99.90;;;;;;5057668;28;20127;-49
2021/09/16 04:06:24;;;;;;;10.10;3.65;;;14.70;99.90;;;;;;5061167;28;20404;-47
2021/09/16 04:08:50;;;;;;;10.45;3.83;;;14.70;99.90;;;;;;5060325;28;20092;-48
2021/09/16 04:11:18;;;;;;;14.00;4.15;;;14.70;99.90;;;;;;5056712;28;20087;-47
2021/09/16 04:13:44;;;;;;;6.70;3.58;;;14.70;99.90;;;;;;5053349;28;20158;-47
2021/09/16 04:16:10;;;;;;;13.35;4.70;;;14.70;99.90;;;;;;5054744;28;20493;-47
2021/09/16 04:18:36;;;;;;;11.48;4.47;;;14.70;99.90;;;;;;5058955;28;20049;-46
2021/09/16 04:21:02;;;;;;;11.15;4.65;;;14.70;99.90;;;;;;5062892;28;20052;-46
2021/09/16 04:23:30;;;;;;;11.25;4.32;;;14.70;99.90;;;;;;5055493;28;20064;-48
2021/09/16 04:25:56;;;;;;;9.98;4.32;;;14.70;99.90;;;;;;5058876;28;20056;-49
2021/09/16 04:28:22;;;;;;;11.20;4.80;;;14.60;99.90;;;;;;5065413;28;20083;-50
2021/09/16 04:30:48;;;;;;;12.02;4.90;;;14.60;99.90;;;;;;5055593;28;20056;-49
2021/09/16 04:33:17;;;;;;;10.98;4.57;;;14.50;99.90;;;;;;5054843;28;20060;-48
2021/09/16 04:35:46;;;;;;;11.40;5.70;;;14.50;99.90;;;;;;5055668;28;20053;-45
2021/09/16 04:38:14;;;;;;;11.00;4.88;;;14.50;99.90;;;;;;5056699;28;20048;-45
2021/09/16 04:40:40;;;;;;;13.35;4.97;;;14.50;99.90;;;;;;5061396;28;20411;-46
2021/09/16 04:43:06;;;;;;;13.38;5.95;;;14.50;99.90;;;;;;5056417;28;20061;-46
2021/09/16 04:45:31;;;;;;;11.63;5.80;;;14.40;99.90;;;;;;5057213;28;20072;-46
2021/09/16 04:47:58;;;;;;;15.27;6.55;;;14.40;99.90;;;;;;5061174;28;20567;-48
2021/09/16 04:50:24;;;;;;;10.68;6.50;;;14.40;99.90;;;;;;5052473;28;20053;-48
2021/09/16 04:52:50;;;;;;;16.95;7.50;;;14.40;99.90;;;;;;5057445;28;20057;-48
2021/09/16 04:55:16;;;;;;;17.65;7.25;;;14.40;99.90;;;;;;5055162;28;20509;-46
2021/09/16 04:57:42;;;;;;;13.93;6.82;;;14.30;99.90;;;;;;5062710;28;20314;-46
2021/09/16 05:00:08;;;;;;;10.43;7.05;;;14.40;99.90;;;;;;5060985;28;20041;-46
2021/09/16 05:02:34;;;;;;;19.33;7.80;;;14.40;99.90;;;;;;5066846;28;20455;-46
2021/09/16 05:05:01;;;;;;;14.07;8.43;;;14.40;99.90;;;;;;5064086;28;20052;-45
2021/09/16 05:07:27;;;;;;;14.07;7.88;;;14.50;99.90;;;;;;5065145;28;20049;-47
2021/09/16 05:09:53;;;;;;;16.73;8.00;;;14.50;99.90;;;;;;5060758;28;20541;-47
2021/09/16 05:12:24;;;;;;;16.35;8.73;;;14.60;99.90;;;;;;5066301;28;20182;-47
2021/09/16 05:14:50;;;;;;;17.27;7.75;;;14.60;99.90;;;;;;5066737;28;20497;-47
2021/09/16 05:17:17;;;;;;;13.18;7.53;;;14.60;99.90;;;;;;5066180;28;20059;-46
2021/09/16 05:19:49;;;;;;;16.15;8.68;;;14.70;99.90;;;;;;5055151;28;20053;-47
2021/09/16 05:22:16;;;;;;;22.63;8.50;;;14.70;99.90;;;;;;5057162;28;20052;-47
2021/09/16 05:24:42;;;;;;;15.15;9.20;;;14.70;99.90;;;;;;5061432;28;20057;-47
2021/09/16 05:27:08;;;;;;;15.68;8.48;;;14.80;99.90;;;;;;5056601;28;20109;-46
2021/09/16 05:29:34;;;;;;;13.88;8.07;;;14.80;99.90;;;;;;5059703;28;20052;-46
2021/09/16 05:32:01;;;;;;;13.05;7.50;;;14.90;99.90;;;;;;5058065;28;20424;-45
2021/09/16 05:34:28;;;;;;;10.35;7.82;;;15.00;99.90;;;;;;5060370;28;20048;-48
2021/09/16 05:36:54;;;;;;;10.57;7.50;;;15.10;99.90;;;;;;5061925;28;20048;-48
2021/09/16 05:39:21;;;;;;;14.40;9.35;;;15.10;99.90;;;;;;5059054;28;20111;-46
2021/09/16 05:41:48;;;;;;;100.00;89.50;;;15.10;99.90;;;;;;5058421;28;20049;-46
2021/09/16 05:44:14;;;;;;;22.75;18.67;;;15.20;99.90;;;;;;5055856;28;20581;-47
2021/09/16 05:46:40;;;;;;;16.60;9.98;;;15.20;99.90;;;;;;5048937;28;20131;-46
2021/09/16 05:49:07;;;;;;;25.70;20.48;;;15.20;99.90;;;;;;5059127;28;20488;-46
2021/09/16 05:51:33;;;;;;;20.48;13.50;;;15.30;99.90;;;;;;5084940;27;20139;-46
2021/09/16 05:53:59;;;;;;;15.93;8.88;;;15.40;99.90;;;;;;5057680;28;20057;-47
2021/09/16 05:56:25;;;;;;;13.07;7.30;;;15.40;99.90;;;;;;5054464;28;20053;-46
2021/09/16 05:58:51;;;;;;;12.57;7.43;;;15.50;99.90;;;;;;5055305;28;20141;-47
2021/09/16 06:01:18;;;;;;;14.63;8.23;;;15.50;99.90;;;;;;5050014;28;20139;-45
2021/09/16 06:03:44;;;;;;;11.20;6.70;;;15.50;99.90;;;;;;5050833;28;20041;-47
2021/09/16 06:06:10;;;;;;;12.18;6.78;;;15.50;99.90;;;;;;5058237;28;20090;-45
2021/09/16 06:08:37;;;;;;;12.32;6.57;;;15.60;99.90;;;;;;5057443;28;20049;-46
2021/09/16 06:11:03;;;;;;;26.08;18.83;;;15.50;99.90;;;;;;5050378;28;21788;-45
2021/09/16 06:13:30;;;;;;;40.85;32.38;;;15.60;99.90;;;;;;5057328;28;20191;-43
2021/09/16 06:15:56;;;;;;;42.83;35.83;;;15.60;99.90;;;;;;5061889;28;20056;-44
2021/09/16 06:18:25;;;;;;;37.95;28.52;;;15.70;99.90;;;;;;5061351;28;20060;-44
2021/09/16 06:20:51;;;;;;;14.93;8.48;;;15.70;99.90;;;;;;5056664;28;20041;-43
2021/09/16 06:23:18;;;;;;;24.27;14.90;;;15.70;99.90;;;;;;5057869;28;20048;-45
2021/09/16 06:25:44;;;;;;;16.23;9.45;;;15.70;99.90;;;;;;5032046;28;20041;-48
2021/09/16 06:28:11;;;;;;;16.40;10.15;;;15.80;99.90;;;;;;5053423;28;20816;-43
2021/09/16 06:30:38;;;;;;;14.32;6.30;;;15.80;99.90;;;;;;5053352;28;20044;-44
2021/09/16 06:33:04;;;;;;;17.10;7.30;;;15.80;99.90;;;;;;5063500;28;20074;-43
2021/09/16 06:35:30;;;;;;;14.85;6.68;;;15.80;99.90;;;;;;5055541;28;20127;-45
2021/09/16 06:38:00;;;;;;;19.48;11.90;;;15.80;99.90;;;;;;5056544;28;20059;-44
2021/09/16 06:40:26;;;;;;;12.98;6.97;;;15.90;99.90;;;;;;5052743;28;20059;-47
2021/09/16 06:42:52;;;;;;;15.05;8.15;;;15.90;99.90;;;;;;5054394;28;20524;-47
2021/09/16 06:45:18;;;;;;;11.98;7.30;;;16.00;99.90;;;;;;5067141;28;20060;-50
2021/09/16 06:47:45;;;;;;;15.75;9.25;;;16.10;99.90;;;;;;5059160;28;20107;-48
2021/09/16 06:50:12;;;;;;;15.43;10.15;;;16.10;99.90;;;;;;5057719;28;20057;-46
2021/09/16 06:52:38;;;;;;;15.45;8.60;;;16.20;99.90;;;;;;5048285;28;20135;-51
2021/09/16 06:55:05;;;;;;;17.15;8.82;;;16.20;99.90;;;;;;5054069;28;20060;-47
2021/09/16 06:57:31;;;;;;;14.43;5.68;;;16.30;99.90;;;;;;5058243;28;20099;-45
2021/09/16 06:59:57;;;;;;;12.30;6.93;;;16.30;99.90;;;;;;5061174;28;20052;-49
2021/09/16 07:02:26;;;;;;;11.00;6.95;;;16.40;99.90;;;;;;5062257;28;20048;-50
2021/09/16 07:04:53;;;;;;;21.52;15.05;;;16.40;99.90;;;;;;5060241;28;20078;-46
2021/09/16 07:07:19;;;;;;;38.60;30.25;;;16.50;99.90;;;;;;5064010;28;20520;-48
2021/09/16 07:09:45;;;;;;;11.40;5.75;;;16.50;99.90;;;;;;5062360;28;20044;-43
2021/09/16 07:12:12;;;;;;;13.77;7.07;;;16.60;99.90;;;;;;5060650;28;20198;-47
2021/09/16 07:14:38;;;;;;;26.83;19.55;;;16.60;99.90;;;;;;5059512;28;20052;-45
2021/09/16 07:17:05;;;;;;;10.60;4.43;;;16.70;99.90;;;;;;5065840;28;20416;-51
2021/09/16 07:19:31;;;;;;;8.10;3.47;;;16.60;99.90;;;;;;5093197;28;20395;-47
2021/09/16 07:21:57;;;;;;;9.57;4.60;;;16.60;99.90;;;;;;5063344;28;20110;-50
2021/09/16 07:24:24;;;;;;;10.25;3.80;;;16.70;99.90;;;;;;5060290;28;20098;-48
2021/09/16 07:26:50;;;;;;;10.68;5.40;;;16.70;99.90;;;;;;5062051;28;20049;-50
2021/09/16 07:29:21;;;;;;;81.47;72.57;;;16.70;99.90;;;;;;5063016;28;20445;-47
2021/09/16 07:31:49;;;;;;;22.35;15.60;;;16.80;99.90;;;;;;5060944;28;20083;-48
2021/09/16 07:34:18;;;;;;;10.80;4.80;;;16.80;99.90;;;;;;5059931;28;20101;-47
2021/09/16 07:36:45;;;;;;;10.25;5.72;;;16.80;99.90;;;;;;5062641;28;20056;-47
2021/09/16 07:39:12;;;;;;;20.98;16.70;;;16.80;99.90;;;;;;5059734;28;20051;-46
2021/09/16 07:41:40;;;;;;;9.63;5.72;;;16.80;99.90;;;;;;5060753;28;20048;-46
2021/09/16 07:44:07;;;;;;;11.20;5.35;;;16.80;99.90;;;;;;5054631;28;20056;-47
2021/09/16 07:46:33;;;;;;;10.35;5.78;;;16.80;99.90;;;;;;5050515;28;20103;-49
2021/09/16 07:49:00;;;;;;;15.35;7.95;;;16.80;99.90;;;;;;5065386;28;20095;-46
2021/09/16 07:51:27;;;;;;;8.13;3.97;;;16.80;99.90;;;;;;5055666;28;20129;-47
2021/09/16 07:53:53;;;;;;;14.18;8.75;;;16.90;99.90;;;;;;5049689;28;20069;-46
2021/09/16 07:56:19;;;;;;;12.63;5.38;;;17.00;99.90;;;;;;5050257;28;20064;-51
2021/09/16 07:58:46;;;;;;;8.45;3.28;;;17.10;99.90;;;;;;5052788;28;20062;-49
2021/09/16 08:01:13;;;;;;;9.18;3.90;;;17.20;99.90;;;;;;5059247;28;20056;-46
2021/09/16 08:03:40;;;;;;;15.77;10.60;;;17.20;99.90;;;;;;5056252;28;20056;-48
2021/09/16 08:06:07;;;;;;;13.15;5.53;;;17.20;99.90;;;;;;5057454;28;20152;-48
2021/09/16 08:08:33;;;;;;;13.85;5.25;;;17.20;99.90;;;;;;5055265;28;20063;-50
2021/09/16 08:11:00;;;;;;;9.60;3.90;;;17.30;99.90;;;;;;5057568;28;20053;-47
2021/09/16 08:13:26;;;;;;;8.82;3.33;;;17.20;99.90;;;;;;5061016;28;20048;-48
2021/09/16 08:15:53;;;;;;;9.52;3.75;;;17.30;99.90;;;;;;5057722;28;20060;-47
2021/09/16 08:18:23;;;;;;;10.32;4.80;;;17.30;99.90;;;;;;5065596;28;20048;-47
2021/09/16 08:20:52;;;;;;;9.80;3.03;;;17.40;99.90;;;;;;5064352;28;20045;-50
2021/09/16 08:23:20;;;;;;;8.27;2.50;;;17.40;99.90;;;;;;5058687;28;20053;-48
2021/09/16 08:25:49;;;;;;;7.97;3.00;;;17.40;99.90;;;;;;5064381;28;20049;-51
2021/09/16 08:28:16;;;;;;;8.82;3.10;;;17.50;99.90;;;;;;5058592;28;20053;-48
2021/09/16 08:30:46;;;;;;;8.60;2.63;;;17.60;99.90;;;;;;5065355;28;20052;-50
2021/09/16 08:33:13;;;;;;;7.75;2.53;;;17.60;99.90;;;;;;5059447;28;20445;-48
2021/09/16 08:35:39;;;;;;;12.32;6.15;;;17.70;99.90;;;;;;5067584;28;20067;-49
2021/09/16 08:38:06;;;;;;;9.73;2.70;;;17.80;99.90;;;;;;5059555;28;20044;-49
2021/09/16 08:40:32;;;;;;;10.27;3.20;;;17.80;99.90;;;;;;5064161;28;20061;-49
2021/09/16 08:43:01;;;;;;;22.15;15.52;;;17.90;99.90;;;;;;5060813;28;20045;-46
2021/09/16 08:45:28;;;;;;;29.88;25.05;;;18.00;99.90;;;;;;5070820;28;20504;-47
2021/09/16 08:47:57;;;;;;;9.02;3.10;;;18.00;99.90;;;;;;5068442;28;20105;-47
2021/09/16 08:50:26;;;;;;;12.05;4.60;;;18.10;99.90;;;;;;5070676;28;20055;-48
2021/09/16 08:52:53;;;;;;;8.27;2.95;;;18.10;99.90;;;;;;5060645;28;20642;-49
2021/09/16 08:55:21;;;;;;;9.95;5.03;;;18.20;99.90;;;;;;5056770;28;20497;-47
2021/09/16 08:57:54;;;;;;;5.90;2.17;;;18.20;99.90;;;;;;5060956;28;20455;-47
2021/09/16 09:00:21;;;;;;;9.05;2.45;;;18.30;99.90;;;;;;5057899;28;20127;-50
2021/09/16 09:02:49;;;;;;;7.88;2.97;;;18.30;99.90;;;;;;5090639;28;20060;-47
2021/09/16 09:05:16;;;;;;;7.68;2.40;;;18.40;99.90;;;;;;5054825;28;20447;-48
2021/09/16 09:07:54;;;;;;;8.48;1.85;;;18.50;99.90;;;;;;5063536;28;20121;-47
2021/09/16 09:10:47;;;;;;;6.88;2.03;;;18.60;99.90;;;;;;5056303;28;20052;-47
2021/09/16 09:13:15;;;;;;;10.15;3.08;;;18.50;99.90;;;;;;5059069;28;20554;-48
2021/09/16 09:15:44;;;;;;;7.20;1.85;;;18.50;99.90;;;;;;5057072;28;20049;-50
2021/09/16 09:18:18;;;;;;;6.82;2.42;;;18.50;99.90;;;;;;5068461;28;20473;-48
2021/09/16 09:21:02;;;;;;;5.97;1.90;;;18.40;99.90;;;;;;5065960;28;20581;-49
2021/09/16 09:23:50;;;;;;;8.23;2.30;;;18.40;99.90;;;;;;5059866;28;20056;-47
2021/09/16 09:26:31;;;;;;;8.02;1.90;;;18.30;99.90;;;;;;5067431;28;20516;-50
2021/09/16 09:29:16;;;;;;;63.20;54.80;;;18.40;99.90;;;;;;5059973;28;20052;-47
2021/09/16 09:31:57;;;;;;;9.15;2.97;;;18.40;99.90;;;;;;5059159;28;20751;-47
2021/09/16 09:34:27;;;;;;;10.35;5.13;;;18.80;99.90;;;;;;5063317;28;20421;-51
2021/09/16 09:37:18;;;;;;;5.07;1.80;;;19.60;99.90;;;;;;5056733;28;20048;-47
2021/09/16 09:39:50;;;;;;;11.23;3.88;;;20.00;99.90;;;;;;5045877;28;20049;-52
2021/09/16 09:42:24;;;;;;;6.65;3.35;;;20.00;99.90;;;;;;5060944;28;20064;-48
2021/09/16 09:45:08;;;;;;;4.38;1.40;;;20.20;99.90;;;;;;5060660;28;20515;-50
2021/09/16 09:47:38;;;;;;;6.40;1.80;;;20.30;99.90;;;;;;5061298;28;20087;-49
2021/09/16 09:50:16;;;;;;;8.55;1.73;;;20.70;99.90;;;;;;5062115;28;20209;-48
2021/09/16 09:52:43;;;;;;;8.35;4.40;;;21.20;99.90;;;;;;5061716;28;20048;-50
2021/09/16 09:55:14;;;;;;;6.03;1.60;;;21.40;99.90;;;;;;5056083;28;20142;-49
2021/09/16 09:57:41;;;;;;;6.78;1.42;;;21.50;99.90;;;;;;5068567;28;20052;-48
2021/09/16 10:00:19;;;;;;;4.22;1.50;;;21.30;99.90;;;;;;5068332;28;20120;-51
2021/09/16 10:02:50;;;;;;;3.67;1.23;;;21.20;99.90;;;;;;5066476;28;20484;-51
2021/09/16 10:05:34;;;;;;;6.18;1.60;;;21.30;99.90;;;;;;5040615;28;20044;-51
2021/09/16 10:08:11;;;;;;;7.57;3.38;;;21.80;99.90;;;;;;5068450;28;20055;-51
2021/09/16 10:10:43;;;;;;;7.28;2.67;;;22.50;99.90;;;;;;5050294;28;20559;-50
2021/09/16 10:13:17;;;;;;;5.15;1.70;;;22.80;99.90;;;;;;5053180;28;20049;-50
2021/09/16 10:15:48;;;;;;;4.70;1.25;;;22.40;99.90;;;;;;5054027;28;20071;-53
2021/09/16 10:18:15;;;;;;;6.38;2.15;;;21.90;99.90;;;;;;5057688;28;20064;-54
2021/09/16 10:20:46;;;;;;;4.78;2.50;;;21.30;99.90;;;;;;5097945;28;20152;-52
2021/09/16 10:23:18;;;;;;;4.57;1.70;;;20.70;99.90;;;;;;5051196;28;20052;-54
2021/09/16 10:25:57;;;;;;;5.25;1.80;;;20.70;99.90;;;;;;5057565;28;20884;-53
2021/09/16 10:28:35;;;;;;;10.52;6.20;;;20.70;99.90;;;;;;5049848;28;20061;-51
2021/09/16 10:31:20;;;;;;;4.25;2.25;;;20.50;99.90;;;;;;5053565;28;20045;-52
2021/09/16 10:33:47;;;;;;;8.93;4.32;;;20.20;99.90;;;;;;5066717;28;20143;-52
2021/09/16 10:36:14;;;;;;;5.32;2.05;;;20.00;99.90;;;;;;5062765;28;20061;-50
2021/09/16 10:38:49;;;;;;;5.28;1.45;;;19.80;99.90;;;;;;5067763;28;20053;-51
2021/09/16 10:41:37;;;;;;;5.38;1.20;;;19.70;99.90;;;;;;5067912;28;20056;-51
2021/09/16 10:44:08;;;;;;;4.68;1.30;;;19.60;99.90;;;;;;5063699;28;20048;-52
2021/09/16 10:46:37;;;;;;;7.10;1.52;;;19.60;99.90;;;;;;5055189;28;20568;-52
2021/09/16 10:49:24;;;;;;;4.55;1.25;;;19.50;99.90;;;;;;5067775;28;20083;-52
2021/09/16 10:51:58;;;;;;;5.80;2.05;;;19.40;99.90;;;;;;5065878;28;20468;-52
2021/09/16 10:54:27;;;;;;;20.42;17.20;;;19.30;99.90;;;;;;5062342;28;20057;-50
2021/09/16 10:57:02;;;;;;;;;;;19.10;99.90;;;;;;5053562;28;20052;-51
2021/09/16 10:59:47;;;;;;;9.20;6.00;;;18.80;99.90;;;;;;5067201;28;19924;-51
2021/09/16 11:02:17;;;;;;;7.60;2.25;;;18.70;99.90;;;;;;5060182;28;20138;-50
2021/09/16 11:04:59;;;;;;;3.17;1.27;;;18.70;99.90;;;;;;5058446;28;20127;-49
2021/09/16 11:07:37;;;;;;;7.13;1.75;;;18.90;99.90;;;;;;5057195;28;20060;-51
2021/09/16 11:10:15;;;;;;;6.20;1.63;;;18.90;99.90;;;;;;5054508;28;20577;-49
2021/09/16 11:12:44;;;;;;;5.35;2.63;;;19.10;99.90;;;;;;5062351;28;20057;-48
2021/09/16 11:15:12;;;;;;;4.00;1.42;;;19.00;99.90;;;;;;5053096;28;20048;-48
2021/09/16 11:17:43;;;;;;;3.00;1.10;;;19.00;99.90;;;;;;5060030;28;20053;-49
2021/09/16 11:20:13;;;;;;;3.90;1.30;;;19.00;99.90;;;;;;5062667;28;20500;-50
2021/09/16 11:22:42;;;;;;;5.00;1.08;;;18.90;99.90;;;;;;5066055;28;20063;-49
2021/09/16 11:25:14;;;;;;;5.32;1.30;;;18.90;99.90;;;;;;5067493;28;20641;-50
2021/09/16 11:27:40;;;;;;;4.35;1.60;;;19.00;99.90;;;;;;5055524;28;20053;-52
2021/09/16 11:30:14;;;;;;;4.30;1.30;;;19.10;99.90;;;;;;5066494;28;20051;-48
2021/09/16 11:32:43;;;;;;;5.32;1.45;;;19.00;99.90;;;;;;5051320;28;20076;-48
2021/09/16 11:35:18;;;;;;;6.85;1.70;;;19.00;99.90;;;;;;5054657;28;20481;-49
2021/09/16 11:37:50;;;;;;;4.60;1.48;;;19.10;99.90;;;;;;5056775;28;20063;-50
2021/09/16 11:40:24;;;;;;;5.40;1.13;;;19.40;99.90;;;;;;5061437;28;20075;-52
2021/09/16 11:42:56;;;;;;;6.47;1.48;;;19.70;99.90;;;;;;5049781;28;20700;-51
2021/09/16 11:45:25;;;;;;;4.85;1.10;;;19.90;99.90;;;;;;5061625;28;20471;-53
2021/09/16 11:47:57;;;;;;;4.70;1.63;;;20.10;99.90;;;;;;5060226;28;20060;-51
2021/09/16 11:50:36;;;;;;;3.78;1.10;;;20.30;99.90;;;;;;5063520;28;20505;-53
2021/09/16 11:53:08;;;;;;;3.55;1.00;;;20.30;99.90;;;;;;5059086;28;20121;-49
2021/09/16 11:55:43;;;;;;;3.60;1.50;;;20.20;99.90;;;;;;5048193;28;20057;-53
2021/09/16 11:58:20;;;;;;;3.20;1.30;;;20.40;99.90;;;;;;5053547;28;20057;-52
2021/09/16 12:00:55;;;;;;;3.03;1.10;;;20.90;99.90;;;;;;5051710;28;20049;-53
2021/09/16 12:03:29;;;;;;;3.97;1.40;;;21.20;99.90;;;;;;5052037;28;20088;-52
2021/09/16 12:05:58;;;;;;;6.07;1.55;;;21.30;99.90;;;;;;5058663;28;20063;-53
2021/09/16 12:08:30;;;;;;;4.35;1.20;;;21.60;99.90;;;;;;5063029;28;20094;-54
2021/09/16 12:11:07;;;;;;;2.90;1.10;;;21.70;99.90;;;;;;5057880;28;20049;-54
2021/09/16 12:13:39;;;;;;;5.65;1.33;;;21.80;99.90;;;;;;5062572;28;20067;-54
2021/09/16 12:16:29;;;;;;;3.92;1.10;;;22.00;99.90;;;;;;5058498;28;20566;-53
2021/09/16 12:19:05;;;;;;;5.28;1.23;;;22.50;99.90;;;;;;5069562;28;20144;-53
2021/09/16 12:21:45;;;;;;;3.15;0.90;;;22.70;99.90;;;;;;5055932;28;20059;-54
2021/09/16 12:24:20;;;;;;;5.93;1.15;;;22.40;94.70;;;;;;5066571;28;20513;-52
2021/09/16 12:26:51;;;;;;;3.88;1.00;;;22.10;98.00;;;;;;5075181;28;20082;-56
2021/09/16 12:29:28;;;;;;;3.42;1.13;;;21.80;99.90;;;;;;5056511;28;20053;-55
2021/09/16 12:32:07;;;;;;;3.45;1.45;;;21.90;99.90;;;;;;5058302;28;20569;-54
2021/09/16 12:34:39;;;;;;;5.22;1.63;;;22.40;99.70;;;;;;5062056;28;20060;-55
2021/09/16 12:37:11;;;;;;;11.27;9.88;;;23.20;96.20;;;;;;5067668;28;20048;-54
2021/09/16 12:39:50;;;;;;;24.02;21.58;;;23.30;91.30;;;;;;5059620;28;20504;-55
2021/09/16 12:42:35;;;;;;;6.57;3.30;;;23.00;92.30;;;;;;5063628;28;20067;-54
2021/09/16 12:45:09;;;;;;;4.68;2.22;;;22.50;94.30;;;;;;5064720;28;20055;-54
2021/09/16 12:47:50;;;;;;;10.02;7.65;;;22.20;96.00;;;;;;5056135;28;20575;-55
2021/09/16 12:50:18;;;;;;;4.47;1.53;;;22.50;99.90;;;;;;5057568;28;20047;-54
2021/09/16 12:52:48;;;;;;;14.38;12.05;;;23.00;94.90;;;;;;5058009;28;20078;-55